Ana Sayfa
METAR-TAF:

METAR-TAF

Havaalanları :

Windham Airport

Willimantic, Connecticut, Amerika Birleşik Devletleri

Enlem: 41-44-31N, Boylam: 072-11-01W, yükseklik: 75 m

Güncel hava durumu gözlemi

Rapor saat 00:52 UTC de 1 saat ve 4 dakika önce yapıldı.
Rüzgar kuzeydan 7 kt
Sıcaklık 0°C
Nem 59%
Basınç 1011 hPa
Görüş mesafesi: 16.1 km
4100 ft yükseklikte parçalı çok bulutlu
5000 ft yükseklikte çok bulutlu

METAR: KIJD 200052Z AUTO 35007KT 10SM BKN041 OVC050 00/M07 A2985 RMK AO2 SLP109 T00001067

Saat: 20:56 (01:56 UTC)


TAF: eksik

4.000'den fazla havaalanı için hava durumu gözlemleri ve tahminleri (METAR ve TAF raporları).

Kullanılabilir istasyonlar harita üzerinde sarı ve kırmızı noktalarla gösterilir.

İstasyonun adını görmek için fareyi noktanın üzerinde gezdirin.

Sonrasında hava gözlem ve tahminlerini görmek için tıklayın.

Haritayı değiştirmek için: yaklaştırmak için siyah artı işaretli yeşil düğmeye ve uzaklaştırmak için de eksi işaretli düğmeye hızla tıklayın; bitişik haritalar için yeşil okları kullanın.


METAR-TAF: